createdAt,value
2023-03-11T00:02:00.206Z,9.15
2023-03-11T00:04:32.301Z,8.35
2023-03-11T00:07:03.035Z,8.40
2023-03-11T00:09:33.402Z,9.57
2023-03-11T00:12:07.511Z,8.43
2023-03-11T00:14:37.670Z,8.88
2023-03-11T00:17:14.896Z,9.23
2023-03-11T00:27:57.349Z,7.53
2023-03-11T00:30:29.238Z,7.07
2023-03-11T00:33:02.081Z,7.15
2023-03-11T00:35:35.459Z,8.25
2023-03-11T00:38:08.933Z,8.82
2023-03-11T00:40:41.597Z,8.02
2023-03-11T00:43:14.001Z,8.80
2023-03-11T00:45:44.613Z,8.40
2023-03-11T00:48:16.891Z,8.02
2023-03-11T00:50:48.291Z,7.95
2023-03-11T00:53:19.389Z,7.63
2023-03-11T00:55:50.870Z,7.32
2023-03-11T00:58:22.880Z,8.02
2023-03-11T01:00:57.444Z,7.05
2023-03-11T01:03:27.775Z,8.10
2023-03-11T01:05:58.515Z,9.05
2023-03-11T01:08:29.090Z,8.30
2023-03-11T01:10:59.928Z,7.40
2023-03-11T01:13:32.017Z,7.82
2023-03-11T01:16:04.521Z,8.25
2023-03-11T01:18:34.981Z,8.23
2023-03-11T01:21:06.300Z,6.93
2023-03-11T01:23:37.468Z,8.20
2023-03-11T01:26:08.373Z,7.63
2023-03-11T01:28:39.260Z,7.43
2023-03-11T01:31:12.099Z,8.57
2023-03-11T01:33:43.219Z,7.03
2023-03-11T01:36:14.882Z,7.65
2023-03-11T01:38:46.046Z,8.27
2023-03-11T01:41:16.308Z,8.07
2023-03-11T01:43:47.475Z,8.32
2023-03-11T01:46:27.148Z,8.60
2023-03-11T01:49:01.337Z,9.13
2023-03-11T01:51:37.940Z,8.75
2023-03-11T01:54:16.760Z,9.15
2023-03-11T01:56:48.063Z,8.82
2023-03-11T01:59:24.824Z,7.85
2023-03-11T02:02:07.502Z,7.65
2023-03-11T02:04:39.412Z,8.27
2023-03-11T02:07:12.634Z,8.52
2023-03-11T02:09:43.744Z,9.05
2023-03-11T02:12:18.140Z,7.35
2023-03-11T02:14:52.690Z,9.00
2023-03-11T02:20:14.585Z,8.57
2023-03-11T02:22:46.959Z,8.68
2023-03-11T02:25:24.144Z,8.95
2023-03-11T02:27:57.820Z,9.25
2023-03-11T02:30:31.060Z,9.48
2023-03-11T02:33:02.742Z,9.13
2023-03-11T02:35:33.964Z,8.95
2023-03-11T02:38:06.074Z,9.25
2023-03-11T02:41:09.174Z,12.10
2023-03-11T02:43:48.420Z,9.93
2023-03-11T02:46:21.615Z,9.52
2023-03-11T02:48:54.983Z,10.02
2023-03-11T02:51:26.710Z,9.10
2023-03-11T02:54:02.613Z,9.13
2023-03-11T02:56:34.803Z,10.55
2023-03-11T02:59:06.023Z,8.85
2023-03-11T03:01:38.511Z,9.23
2023-03-11T03:04:09.767Z,9.43
2023-03-11T03:06:42.180Z,10.40
2023-03-11T03:09:16.044Z,9.93
2023-03-11T03:15:00.743Z,9.93
2023-03-11T03:20:30.381Z,9.90
2023-03-11T03:23:46.803Z,10.00
2023-03-11T03:26:30.764Z,10.30
2023-03-11T03:29:06.168Z,10.23
2023-03-11T03:34:17.820Z,10.10
2023-03-11T03:36:53.144Z,10.70
2023-03-11T03:39:24.561Z,9.88
2023-03-11T03:41:56.376Z,9.93
2023-03-11T03:44:38.785Z,10.07
2023-03-11T03:47:12.432Z,9.85
2023-03-11T03:49:43.891Z,10.07
2023-03-11T03:52:49.849Z,10.40
2023-03-11T03:55:22.692Z,10.20
2023-03-11T03:58:02.491Z,10.88
2023-03-11T04:00:46.704Z,10.20
2023-03-11T04:07:17.769Z,10.23
2023-03-11T04:16:37.418Z,10.32
2023-03-11T04:19:22.056Z,10.30
2023-03-11T04:21:54.315Z,10.23
2023-03-11T04:27:31.631Z,9.77
2023-03-11T04:30:45.607Z,9.30
2023-03-11T04:33:24.416Z,9.57
2023-03-11T04:41:50.009Z,9.43
2023-03-11T04:44:29.107Z,9.45
2023-03-11T04:47:02.379Z,9.57
2023-03-11T04:49:42.993Z,10.10
2023-03-11T04:52:19.826Z,9.55
2023-03-11T04:54:58.305Z,9.52
2023-03-11T04:57:33.638Z,9.60
2023-03-11T05:00:22.409Z,9.10
2023-03-11T05:02:55.819Z,9.70
2023-03-11T05:05:28.260Z,9.98
2023-03-11T05:08:07.057Z,9.32
2023-03-11T05:10:52.157Z,9.60
2023-03-11T05:13:27.485Z,9.65
2023-03-11T05:16:00.611Z,9.60
2023-03-11T05:18:33.398Z,9.45
2023-03-11T05:21:06.782Z,10.18
2023-03-11T05:23:42.412Z,10.20
2023-03-11T05:26:14.553Z,10.13
2023-03-11T05:28:48.887Z,10.30
2023-03-11T05:31:27.576Z,10.45
2023-03-11T05:34:00.030Z,9.88
2023-03-11T05:36:32.753Z,10.00
2023-03-11T05:39:06.437Z,9.70
2023-03-11T05:41:40.166Z,10.07
2023-03-11T05:44:17.424Z,9.93
2023-03-11T05:46:52.170Z,8.75
2023-03-11T05:49:24.501Z,9.82
2023-03-11T05:52:01.705Z,9.90
2023-03-11T05:54:36.338Z,9.70
2023-03-11T05:57:09.184Z,10.40
2023-03-11T05:59:47.274Z,9.00
2023-03-11T06:02:19.607Z,9.20
2023-03-11T06:08:23.544Z,8.75
2023-03-11T06:10:55.061Z,9.75
2023-03-11T06:13:26.554Z,9.57
2023-03-11T06:16:01.814Z,9.23
2023-03-11T06:18:36.961Z,10.20
2023-03-11T06:21:12.323Z,9.02
2023-03-11T06:23:43.651Z,9.88
2023-03-11T06:26:20.879Z,9.50
2023-03-11T06:28:56.607Z,9.35
2023-03-11T06:31:31.712Z,9.75
2023-03-11T06:34:08.829Z,10.23
2023-03-11T06:36:39.819Z,9.85
2023-03-11T06:39:14.956Z,9.32
2023-03-11T06:41:48.941Z,9.48
2023-03-11T06:44:22.880Z,9.10
2023-03-11T06:46:53.601Z,9.20
2023-03-11T06:49:26.038Z,8.98
2023-03-11T06:51:58.520Z,9.32
2023-03-11T06:54:32.569Z,8.93
2023-03-11T06:57:07.468Z,8.23
2023-03-11T06:59:39.207Z,8.95
2023-03-11T07:02:20.148Z,9.70
2023-03-11T07:04:54.571Z,10.02
2023-03-11T07:07:27.965Z,10.10
2023-03-11T07:10:02.603Z,10.18
2023-03-11T07:12:34.045Z,10.65
2023-03-11T07:15:09.233Z,10.90
2023-03-11T07:17:44.473Z,9.07
2023-03-11T07:20:19.213Z,10.50
2023-03-11T07:22:53.651Z,10.68
2023-03-11T07:25:27.550Z,11.93
2023-03-11T07:28:01.129Z,12.05
2023-03-11T07:30:31.795Z,11.88
2023-03-11T07:33:06.220Z,11.68
2023-03-11T07:35:39.552Z,12.00
2023-03-11T07:38:10.526Z,11.70
2023-03-11T07:40:42.018Z,11.77
2023-03-11T07:43:12.659Z,12.10
2023-03-11T07:45:48.111Z,11.75
2023-03-11T07:48:23.220Z,10.70
2023-03-11T07:51:05.985Z,11.38
2023-03-11T07:53:42.018Z,11.23
2023-03-11T07:56:15.398Z,11.13
2023-03-11T07:58:55.335Z,11.30
2023-03-11T08:01:32.861Z,10.98
2023-03-11T08:04:09.504Z,10.90
2023-03-11T08:06:47.149Z,11.13
2023-03-11T08:09:45.444Z,11.48
2023-03-11T08:12:21.221Z,10.57
2023-03-11T08:14:52.342Z,11.25
2023-03-11T08:17:22.675Z,11.48
2023-03-11T08:19:54.328Z,11.70
2023-03-11T08:22:25.393Z,10.48
2023-03-11T08:24:57.102Z,10.52
2023-03-11T08:27:32.321Z,10.35
2023-03-11T08:30:04.695Z,11.35
2023-03-11T08:32:36.974Z,11.48
2023-03-11T08:35:11.081Z,11.07
2023-03-11T08:37:41.906Z,10.30
2023-03-11T08:40:13.052Z,9.93
2023-03-11T08:42:44.527Z,10.05
2023-03-11T08:45:19.372Z,9.63
2023-03-11T08:47:51.994Z,10.45
2023-03-11T08:50:23.913Z,10.23
2023-03-11T08:52:56.295Z,9.90
2023-03-11T08:55:31.915Z,8.93
2023-03-11T08:58:05.532Z,7.97
2023-03-11T09:00:38.599Z,8.55
2023-03-11T09:03:10.524Z,7.72
2023-03-11T09:05:42.767Z,7.53
2023-03-11T09:08:14.394Z,6.97
2023-03-11T09:10:48.034Z,7.35
2023-03-11T09:13:18.971Z,7.10
2023-03-11T09:15:52.330Z,6.93
2023-03-11T09:18:23.709Z,5.82
2023-03-11T09:21:00.498Z,6.75
2023-03-11T09:23:32.913Z,6.47
2023-03-11T09:26:04.572Z,7.07
2023-03-11T09:28:36.384Z,6.38
2023-03-11T09:31:07.677Z,6.22
2023-03-11T09:33:43.891Z,6.32
2023-03-11T09:36:17.606Z,6.25
2023-03-11T09:38:51.553Z,6.25
2023-03-11T09:41:28.986Z,6.05
2023-03-11T09:44:18.651Z,6.95
2023-03-11T09:47:13.624Z,6.63
2023-03-11T09:49:59.524Z,6.68
2023-03-11T09:52:38.197Z,6.38
2023-03-11T09:55:41.465Z,5.97
2023-03-11T09:58:16.869Z,6.43
2023-03-11T10:00:48.912Z,6.20
2023-03-11T10:03:34.791Z,6.28
2023-03-11T10:06:29.123Z,6.90
2023-03-11T10:09:06.258Z,6.32
2023-03-11T10:12:21.057Z,6.00
2023-03-11T10:15:04.980Z,6.05
2023-03-11T10:18:04.184Z,6.10
2023-03-11T10:20:56.244Z,6.03
2023-03-11T10:23:56.826Z,6.22
2023-03-11T10:26:43.292Z,6.25
2023-03-11T10:29:27.195Z,6.05
2023-03-11T10:32:09.410Z,6.15
2023-03-11T10:34:48.353Z,6.07
2023-03-11T10:37:46.267Z,6.80
2023-03-11T10:40:42.648Z,6.40
2023-03-11T10:43:27.835Z,6.97
2023-03-11T10:45:59.209Z,6.68
2023-03-11T10:48:32.048Z,6.93
2023-03-11T10:51:17.797Z,6.20
2023-03-11T10:53:59.813Z,6.97
2023-03-11T10:56:32.699Z,7.15
2023-03-11T10:59:06.657Z,6.95
2023-03-11T11:01:38.636Z,7.97
2023-03-11T11:04:30.739Z,8.02
2023-03-11T11:07:22.002Z,8.88
2023-03-11T11:10:26.430Z,7.93
2023-03-11T11:13:07.929Z,7.68
2023-03-11T11:15:44.078Z,8.50
2023-03-11T11:18:20.580Z,8.40
2023-03-11T11:21:08.806Z,8.85
2023-03-11T11:23:53.037Z,9.32
2023-03-11T11:26:30.313Z,9.27
2023-03-11T11:29:19.883Z,10.98
2023-03-11T11:31:51.060Z,10.02
2023-03-11T11:34:31.990Z,10.43
2023-03-11T11:37:14.900Z,10.02
2023-03-11T11:39:57.688Z,10.13
2023-03-11T11:42:33.471Z,10.88
2023-03-11T11:45:20.299Z,10.65
2023-03-11T11:47:58.780Z,11.18
2023-03-11T11:50:51.655Z,12.60
2023-03-11T11:54:00.165Z,13.85
2023-03-11T11:56:38.057Z,14.50
2023-03-11T11:59:31.722Z,13.73
2023-03-11T12:06:55.466Z,13.38
2023-03-11T12:10:00.805Z,15.27
2023-03-11T12:13:04.720Z,12.75
2023-03-11T12:16:06.432Z,14.43
2023-03-11T12:23:26.376Z,12.73
2023-03-11T12:26:25.467Z,13.90
2023-03-11T12:29:28.940Z,12.80
2023-03-11T12:32:09.006Z,12.13
2023-03-11T12:34:43.806Z,13.27
2023-03-11T12:37:22.027Z,13.13
2023-03-11T12:39:53.348Z,12.85
2023-03-11T12:42:47.303Z,13.13
2023-03-11T12:45:58.816Z,13.77
2023-03-11T12:51:46.073Z,13.43
2023-03-11T12:54:44.814Z,14.35
2023-03-11T12:58:13.528Z,14.70
2023-03-11T13:01:15.894Z,13.65
2023-03-11T13:04:16.601Z,15.25
2023-03-11T13:06:54.216Z,14.30
2023-03-11T13:09:28.504Z,14.35
2023-03-11T13:12:01.288Z,15.90
2023-03-11T13:14:36.653Z,15.20
2023-03-11T13:17:28.548Z,14.80
2023-03-11T13:20:46.806Z,15.82
2023-03-11T13:23:18.256Z,15.23
2023-03-11T13:25:54.813Z,15.88
2023-03-11T13:29:05.967Z,16.30
2023-03-11T13:31:40.512Z,15.95
2023-03-11T13:34:50.315Z,16.45
2023-03-11T13:38:02.071Z,16.33
2023-03-11T13:40:46.956Z,16.63
2023-03-11T13:43:34.956Z,16.42
2023-03-11T13:52:39.907Z,16.98
2023-03-11T13:58:39.730Z,17.48
2023-03-11T14:01:22.172Z,18.77
2023-03-11T14:04:11.757Z,19.70
2023-03-11T14:06:54.058Z,19.45
2023-03-11T14:10:30.863Z,19.95
2023-03-11T14:16:54.385Z,21.63
2023-03-11T14:20:39.409Z,20.40
2023-03-11T14:23:24.889Z,22.17
2023-03-11T14:26:31.135Z,23.38
2023-03-11T14:29:05.316Z,24.75
2023-03-11T14:31:47.243Z,27.25
2023-03-11T14:34:33.477Z,27.90
2023-03-11T14:37:06.219Z,30.80
2023-03-11T14:39:42.243Z,30.08
2023-03-11T14:42:31.924Z,29.00
2023-03-11T14:45:11.040Z,29.63
2023-03-11T14:47:51.610Z,30.42
2023-03-11T14:50:26.960Z,32.97
2023-03-11T14:53:06.463Z,30.70
2023-03-11T14:56:01.364Z,33.67
2023-03-11T14:59:23.741Z,30.58
2023-03-11T15:01:55.621Z,33.13
2023-03-11T15:04:50.390Z,29.50
2023-03-11T15:07:23.938Z,35.42
2023-03-11T15:09:55.487Z,32.63
2023-03-11T15:12:37.109Z,35.28
2023-03-11T15:15:33.622Z,31.95
2023-03-11T15:18:05.107Z,32.38
2023-03-11T15:20:39.103Z,29.67
2023-03-11T15:23:26.442Z,28.88
2023-03-11T15:26:00.316Z,26.27
2023-03-11T15:28:34.106Z,23.73
2023-03-11T15:31:24.765Z,24.42
2023-03-11T15:33:58.848Z,24.15
2023-03-11T15:36:41.696Z,24.00
2023-03-11T15:39:17.808Z,23.42
2023-03-11T15:42:00.977Z,23.60
2023-03-11T15:45:00.707Z,23.13
2023-03-11T15:47:35.995Z,24.13
2023-03-11T15:50:46.574Z,24.83
2023-03-11T15:53:22.311Z,22.42
2023-03-11T15:58:44.801Z,24.27
2023-03-11T16:01:19.803Z,23.42
2023-03-11T16:03:50.140Z,24.15
2023-03-11T16:06:21.351Z,22.75
2023-03-11T16:08:58.634Z,22.98
2023-03-11T16:11:33.914Z,21.02
2023-03-11T16:14:07.972Z,19.33
2023-03-11T16:16:40.993Z,19.70
2023-03-11T16:19:14.178Z,22.15
2023-03-11T16:21:48.862Z,21.38
2023-03-11T16:24:22.439Z,22.35
2023-03-11T16:26:54.124Z,25.30
2023-03-11T16:29:30.389Z,25.23
2023-03-11T16:32:00.603Z,31.73
2023-03-11T16:34:31.387Z,34.42
2023-03-11T16:37:04.659Z,36.65
2023-03-11T16:39:39.660Z,34.50
2023-03-11T16:44:46.773Z,32.63
2023-03-11T16:47:17.669Z,29.98
2023-03-11T16:49:51.823Z,32.70
2023-03-11T16:52:23.838Z,30.45
2023-03-11T16:54:54.523Z,30.02
2023-03-11T16:57:24.690Z,33.92
2023-03-11T16:59:55.333Z,36.17
2023-03-11T17:02:25.743Z,39.88
2023-03-11T17:04:57.619Z,37.30
2023-03-11T17:07:34.191Z,38.17
2023-03-11T17:10:11.667Z,43.08
2023-03-11T17:16:14.253Z,41.25
2023-03-11T17:18:45.956Z,37.95
2023-03-11T17:21:35.341Z,34.88
2023-03-11T17:24:16.996Z,33.63
2023-03-11T17:27:01.645Z,28.45
2023-03-11T17:29:44.729Z,32.20
2023-03-11T17:35:03.525Z,32.05
2023-03-11T17:37:42.159Z,32.60
2023-03-11T17:40:22.509Z,36.45
2023-03-11T17:43:02.021Z,37.70
2023-03-11T17:45:32.907Z,37.38
2023-03-11T17:48:24.685Z,32.28
2023-03-11T17:50:59.991Z,30.30
2023-03-11T17:53:32.095Z,29.20
2023-03-11T17:56:32.197Z,23.85
2023-03-11T17:59:07.642Z,19.25
2023-03-11T18:01:41.429Z,16.27
2023-03-11T18:04:17.778Z,8.88
2023-03-11T18:07:41.834Z,6.45
2023-03-11T18:10:19.474Z,5.45
2023-03-11T18:13:10.186Z,4.70
2023-03-11T18:15:45.047Z,4.80
2023-03-11T18:18:34.389Z,3.80
2023-03-11T18:21:28.949Z,3.35
2023-03-11T18:24:10.985Z,3.25
2023-03-11T18:26:45.174Z,3.05
2023-03-11T18:29:16.053Z,2.78
2023-03-11T18:31:46.461Z,2.85
2023-03-11T18:34:19.387Z,2.10
2023-03-11T18:36:50.845Z,2.10
2023-03-11T18:39:22.780Z,2.42
2023-03-11T18:41:53.346Z,1.73
2023-03-11T18:44:29.794Z,1.80
2023-03-11T18:46:59.937Z,2.67
2023-03-11T18:49:30.609Z,2.15
2023-03-11T18:52:01.378Z,2.03
2023-03-11T18:54:31.748Z,2.10
2023-03-11T18:57:02.257Z,2.25
2023-03-11T18:59:32.441Z,1.70
2023-03-11T19:02:02.729Z,1.70
2023-03-11T19:04:36.644Z,1.63
2023-03-11T19:07:07.645Z,1.25
2023-03-11T19:10:01.631Z,1.75
2023-03-11T19:12:35.148Z,2.30
2023-03-11T19:15:08.878Z,2.22
2023-03-11T19:17:51.742Z,2.00
2023-03-11T19:20:28.424Z,1.90
2023-03-11T19:22:58.852Z,1.45
2023-03-11T19:25:28.953Z,1.50
2023-03-11T19:27:59.540Z,1.40
2023-03-11T19:30:31.369Z,1.60
2023-03-11T19:33:02.188Z,1.98
2023-03-11T19:35:33.303Z,2.22
2023-03-11T19:38:04.153Z,1.50
2023-03-11T19:40:35.114Z,1.80
2023-03-11T19:43:05.971Z,1.70
2023-03-11T19:45:36.490Z,2.03
2023-03-11T19:48:06.652Z,2.13
2023-03-11T19:50:37.278Z,1.35
2023-03-11T19:53:07.655Z,1.90
2023-03-11T19:55:37.913Z,1.80
2023-03-11T19:58:07.974Z,2.20
2023-03-11T20:00:38.109Z,1.52
2023-03-11T20:03:10.238Z,1.30
2023-03-11T20:05:48.525Z,2.08
2023-03-11T20:08:21.575Z,1.75
2023-03-11T20:18:02.583Z,1.70
2023-03-11T20:20:35.097Z,1.85
2023-03-11T20:23:06.229Z,1.75
2023-03-11T20:25:43.883Z,2.10
2023-03-11T20:28:14.331Z,2.00
2023-03-11T20:30:44.352Z,1.80
2023-03-11T20:33:15.034Z,2.15
2023-03-11T20:35:45.261Z,2.10
2023-03-11T20:38:16.845Z,1.65
2023-03-11T20:40:47.284Z,2.38
2023-03-11T20:43:18.286Z,1.92
2023-03-11T20:45:49.463Z,2.00
2023-03-11T20:48:19.776Z,1.98
2023-03-11T20:50:50.043Z,2.35
2023-03-11T20:53:21.562Z,3.17
2023-03-11T20:55:53.070Z,2.55
2023-03-11T20:58:23.549Z,2.00
2023-03-11T21:00:53.661Z,2.65
2023-03-11T21:03:25.720Z,2.10
2023-03-11T21:05:56.345Z,2.78
2023-03-11T21:08:29.164Z,2.58
2023-03-11T21:11:04.439Z,2.75
2023-03-11T21:13:37.340Z,2.78
2023-03-11T21:16:14.907Z,3.47
2023-03-11T21:18:49.310Z,2.47
2023-03-11T21:21:20.817Z,2.90
2023-03-11T21:23:51.371Z,2.50
2023-03-11T21:26:21.766Z,2.13
2023-03-11T21:28:55.758Z,3.22
2023-03-11T21:31:29.489Z,2.83
2023-03-11T21:34:11.634Z,3.92
2023-03-11T21:36:42.599Z,3.53
2023-03-11T21:39:13.803Z,2.90
2023-03-11T21:41:44.105Z,3.53
2023-03-11T21:44:14.578Z,3.90
2023-03-11T22:02:45.388Z,4.28
2023-03-11T22:05:18.162Z,3.05
2023-03-11T22:07:48.600Z,3.92
2023-03-11T22:10:20.750Z,2.92
2023-03-11T22:12:52.807Z,4.63
2023-03-11T22:15:26.921Z,4.40
2023-03-11T22:18:00.218Z,3.58
2023-03-11T22:20:30.969Z,2.95
2023-03-11T22:23:07.202Z,2.90
2023-03-11T22:25:39.067Z,3.72
2023-03-11T22:28:35.448Z,3.78
2023-03-11T22:31:15.706Z,3.63
2023-03-11T22:33:46.953Z,2.42
2023-03-11T22:36:17.458Z,2.15
2023-03-11T22:38:48.202Z,2.25
2023-03-11T22:41:21.107Z,2.78
2023-03-11T22:43:51.193Z,2.38
2023-03-11T22:46:21.330Z,2.90
2023-03-11T22:48:52.075Z,3.00
2023-03-11T22:51:23.214Z,3.83
2023-03-11T22:53:54.647Z,3.47
2023-03-11T22:56:25.622Z,2.95
2023-03-11T22:58:56.308Z,2.80
2023-03-11T23:01:26.369Z,3.88
2023-03-11T23:03:56.995Z,2.97
2023-03-11T23:06:29.040Z,3.50
2023-03-11T23:08:59.451Z,2.35
2023-03-11T23:11:29.591Z,2.45
2023-03-11T23:14:04.252Z,3.35
2023-03-11T23:16:34.730Z,2.80
2023-03-11T23:19:05.085Z,2.92
2023-03-11T23:21:35.811Z,2.38
2023-03-11T23:24:07.561Z,2.67
2023-03-11T23:26:39.288Z,3.00
2023-03-11T23:29:09.622Z,2.92
2023-03-11T23:31:39.739Z,2.70
2023-03-11T23:34:11.160Z,3.15
2023-03-11T23:36:41.523Z,3.03
2023-03-11T23:39:12.313Z,2.58
2023-03-11T23:41:42.726Z,2.70
2023-03-11T23:44:15.812Z,2.55
2023-03-11T23:46:46.350Z,2.30
2023-03-11T23:49:16.291Z,2.67
2023-03-11T23:51:46.378Z,3.05
2023-03-11T23:54:16.909Z,2.97
2023-03-11T23:57:09.055Z,2.30
